sensor_id;sensor_type;location;lat;lon;timestamp;pressure;altitude;pressure_sealevel;temperature;humidity
22657;BME280;11495;55.610;12.100;2022-07-18T00:01:34;101582.09;;;15.71;0.00
22657;BME280;11495;55.610;12.100;2022-07-18T00:04:01;101581.88;;;15.68;0.00
22657;BME280;11495;55.610;12.100;2022-07-18T00:06:26;101599.63;;;15.67;0.00
22657;BME280;11495;55.610;12.100;2022-07-18T00:08:52;101699.50;;;15.62;0.00
22657;BME280;11495;55.610;12.100;2022-07-18T00:11:19;101764.66;;;15.59;0.00
22657;BME280;11495;55.610;12.100;2022-07-18T00:13:44;102003.72;;;15.56;0.00
22657;BME280;11495;55.610;12.100;2022-07-18T00:16:10;102181.19;;;15.51;0.00
22657;BME280;11495;55.610;12.100;2022-07-18T00:18:35;102487.84;;;15.47;0.00
22657;BME280;11495;55.610;12.100;2022-07-18T00:21:01;102533.88;;;15.43;0.00
22657;BME280;11495;55.610;12.100;2022-07-18T00:23:26;102681.13;;;15.41;0.00
22657;BME280;11495;55.610;12.100;2022-07-18T00:25:52;102694.06;;;15.36;0.00
22657;BME280;11495;55.610;12.100;2022-07-18T00:28:17;102754.19;;;15.30;0.00
22657;BME280;11495;55.610;12.100;2022-07-18T00:30:43;102793.53;;;15.27;0.00
22657;BME280;11495;55.610;12.100;2022-07-18T00:33:08;101981.56;;;15.21;0.00
22657;BME280;11495;55.610;12.100;2022-07-18T00:35:34;101979.37;;;15.23;0.00
22657;BME280;11495;55.610;12.100;2022-07-18T00:37:59;101969.94;;;15.24;0.00
22657;BME280;11495;55.610;12.100;2022-07-18T00:40:26;101970.19;;;15.22;0.00
22657;BME280;11495;55.610;12.100;2022-07-18T00:42:52;101964.09;;;15.20;0.00
22657;BME280;11495;55.610;12.100;2022-07-18T00:45:17;101963.00;;;15.16;0.00
22657;BME280;11495;55.610;12.100;2022-07-18T00:47:43;101960.78;;;15.18;0.00
22657;BME280;11495;55.610;12.100;2022-07-18T00:50:08;101961.34;;;15.15;0.00
22657;BME280;11495;55.610;12.100;2022-07-18T00:52:35;101964.66;;;15.17;0.00
22657;BME280;11495;55.610;12.100;2022-07-18T00:55:04;101966.31;;;15.18;0.00
22657;BME280;11495;55.610;12.100;2022-07-18T00:57:30;101957.47;;;15.16;0.00
22657;BME280;11495;55.610;12.100;2022-07-18T00:59:55;101961.63;;;15.18;0.00
22657;BME280;11495;55.610;12.100;2022-07-18T01:02:39;101950.53;;;15.18;0.00
22657;BME280;11495;55.610;12.100;2022-07-18T01:05:06;101965.22;;;15.24;0.00
22657;BME280;11495;55.610;12.100;2022-07-18T01:07:33;101962.16;;;15.26;0.00
22657;BME280;11495;55.610;12.100;2022-07-18T01:09:58;101961.34;;;15.25;0.00
22657;BME280;11495;55.610;12.100;2022-07-18T01:12:25;101972.97;;;15.27;0.00
22657;BME280;11495;55.610;12.100;2022-07-18T01:14:50;102204.16;;;15.31;0.00
22657;BME280;11495;55.610;12.100;2022-07-18T01:17:18;102217.47;;;15.34;0.00
22657;BME280;11495;55.610;12.100;2022-07-18T01:19:44;102213.31;;;15.37;0.00
22657;BME280;11495;55.610;12.100;2022-07-18T01:22:11;102206.13;;;15.41;0.00
22657;BME280;11495;55.610;12.100;2022-07-18T01:24:37;102201.97;;;15.43;0.00
22657;BME280;11495;55.610;12.100;2022-07-18T01:27:03;102201.41;;;15.46;0.00
22657;BME280;11495;55.610;12.100;2022-07-18T01:29:29;102186.72;;;15.51;0.00
22657;BME280;11495;55.610;12.100;2022-07-18T01:31:54;102172.06;;;15.56;0.00
22657;BME280;11495;55.610;12.100;2022-07-18T01:34:23;102162.63;;;15.57;0.00
22657;BME280;11495;55.610;12.100;2022-07-18T01:36:48;102158.19;;;15.61;0.00
22657;BME280;11495;55.610;12.100;2022-07-18T01:39:14;102142.09;;;15.63;0.00
22657;BME280;11495;55.610;12.100;2022-07-18T01:41:39;102140.47;;;15.67;0.00
22657;BME280;11495;55.610;12.100;2022-07-18T01:44:06;102132.97;;;15.67;0.00
22657;BME280;11495;55.610;12.100;2022-07-18T01:46:32;102122.13;;;15.71;0.00
22657;BME280;11495;55.610;12.100;2022-07-18T01:48:58;102120.19;;;15.71;0.00
22657;BME280;11495;55.610;12.100;2022-07-18T01:51:23;102121.59;;;15.74;0.00
22657;BME280;11495;55.610;12.100;2022-07-18T01:53:57;102116.59;;;15.76;0.00
22657;BME280;11495;55.610;12.100;2022-07-18T01:56:27;102105.50;;;15.76;0.00
22657;BME280;11495;55.610;12.100;2022-07-18T01:58:52;102103.28;;;15.78;0.00
22657;BME280;11495;55.610;12.100;2022-07-18T02:01:18;102108.81;;;15.78;0.00
22657;BME280;11495;55.610;12.100;2022-07-18T02:03:43;102103.84;;;15.75;0.00
22657;BME280;11495;55.610;12.100;2022-07-18T02:06:09;102098.00;;;15.71;0.00
22657;BME280;11495;55.610;12.100;2022-07-18T02:08:34;102091.91;;;15.69;0.00
22657;BME280;11495;55.610;12.100;2022-07-18T02:10:59;102085.53;;;15.69;0.00
22657;BME280;11495;55.610;12.100;2022-07-18T02:13:25;102082.50;;;15.65;0.00
22657;BME280;11495;55.610;12.100;2022-07-18T02:15:50;102086.63;;;15.63;0.00
22657;BME280;11495;55.610;12.100;2022-07-18T02:18:20;102082.22;;;15.62;0.00
22657;BME280;11495;55.610;12.100;2022-07-18T02:20:45;102075.00;;;15.61;0.00
22657;BME280;11495;55.610;12.100;2022-07-18T02:23:11;102081.37;;;15.61;0.00
22657;BME280;11495;55.610;12.100;2022-07-18T02:25:37;102075.00;;;15.61;0.00
22657;BME280;11495;55.610;12.100;2022-07-18T02:28:03;102068.06;;;15.63;0.00
22657;BME280;11495;55.610;12.100;2022-07-18T02:30:29;102057.81;;;15.64;0.00
22657;BME280;11495;55.610;12.100;2022-07-18T02:32:54;102043.94;;;15.64;0.00
22657;BME280;11495;55.610;12.100;2022-07-18T02:35:20;102042.25;;;15.63;0.00
22657;BME280;11495;55.610;12.100;2022-07-18T02:37:45;102033.13;;;15.62;0.00
22657;BME280;11495;55.610;12.100;2022-07-18T02:40:11;102026.16;;;15.60;0.00
22657;BME280;11495;55.610;12.100;2022-07-18T02:42:37;102033.09;;;15.57;0.00
22657;BME280;11495;55.610;12.100;2022-07-18T02:45:06;102033.94;;;15.53;0.00
22657;BME280;11495;55.610;12.100;2022-07-18T02:47:32;102043.37;;;15.52;0.00
22657;BME280;11495;55.610;12.100;2022-07-18T02:49:57;102035.31;;;15.50;0.00
22657;BME280;11495;55.610;12.100;2022-07-18T02:52:23;102039.22;;;15.49;0.00
22657;BME280;11495;55.610;12.100;2022-07-18T02:54:48;102038.38;;;15.49;0.00
22657;BME280;11495;55.610;12.100;2022-07-18T02:57:14;102034.50;;;15.50;0.00
22657;BME280;11495;55.610;12.100;2022-07-18T02:59:39;102033.66;;;15.49;0.00
22657;BME280;11495;55.610;12.100;2022-07-18T03:02:05;102035.62;;;15.49;0.00
22657;BME280;11495;55.610;12.100;2022-07-18T03:04:31;102029.25;;;15.48;0.00
22657;BME280;11495;55.610;12.100;2022-07-18T03:06:57;102017.31;;;15.48;0.00
22657;BME280;11495;55.610;12.100;2022-07-18T03:09:22;102018.41;;;15.46;0.00
22657;BME280;11495;55.610;12.100;2022-07-18T03:11:48;102013.97;;;15.45;0.00
22657;BME280;11495;55.610;12.100;2022-07-18T03:14:13;102016.47;;;15.42;0.00
22657;BME280;11495;55.610;12.100;2022-07-18T03:16:39;102012.59;;;15.38;0.00
22657;BME280;11495;55.610;12.100;2022-07-18T03:19:04;102009.81;;;15.38;0.00
22657;BME280;11495;55.610;12.100;2022-07-18T03:21:30;102017.88;;;15.39;0.00
22657;BME280;11495;55.610;12.100;2022-07-18T03:23:56;102008.97;;;15.37;0.00
22657;BME280;11495;55.610;12.100;2022-07-18T03:26:22;101995.69;;;15.39;0.00
22657;BME280;11495;55.610;12.100;2022-07-18T03:28:47;102001.25;;;15.39;0.00
22657;BME280;11495;55.610;12.100;2022-07-18T03:31:13;101999.56;;;15.38;0.00
22657;BME280;11495;55.610;12.100;2022-07-18T03:33:39;101992.34;;;15.37;0.00
22657;BME280;11495;55.610;12.100;2022-07-18T03:36:04;101980.72;;;15.35;0.00
22657;BME280;11495;55.610;12.100;2022-07-18T03:38:30;101979.34;;;15.33;0.00
22657;BME280;11495;55.610;12.100;2022-07-18T03:40:56;101971.31;;;15.31;0.00
22657;BME280;11495;55.610;12.100;2022-07-18T03:43:21;101975.44;;;15.29;0.00
22657;BME280;11495;55.610;12.100;2022-07-18T03:45:47;101973.25;;;15.26;0.00
22657;BME280;11495;55.610;12.100;2022-07-18T03:48:12;101972.41;;;15.25;0.00
22657;BME280;11495;55.610;12.100;2022-07-18T03:50:38;101963.81;;;15.22;0.00
22657;BME280;11495;55.610;12.100;2022-07-18T03:53:03;101967.69;;;15.21;0.00
22657;BME280;11495;55.610;12.100;2022-07-18T03:55:29;101965.50;;;15.17;0.00
22657;BME280;11495;55.610;12.100;2022-07-18T03:57:54;101970.22;;;15.17;0.00
22657;BME280;11495;55.610;12.100;2022-07-18T04:00:19;101961.91;;;15.17;0.00
22657;BME280;11495;55.610;12.100;2022-07-18T04:02:47;101965.50;;;15.17;0.00
22657;BME280;11495;55.610;12.100;2022-07-18T04:05:13;101967.44;;;15.17;0.00
22657;BME280;11495;55.610;12.100;2022-07-18T04:07:39;101975.47;;;15.18;0.00
22657;BME280;11495;55.610;12.100;2022-07-18T04:10:06;101967.16;;;15.18;0.00
22657;BME280;11495;55.610;12.100;2022-07-18T04:12:32;101974.91;;;15.16;0.00
22657;BME280;11495;55.610;12.100;2022-07-18T04:14:58;101974.38;;;15.14;0.00
22657;BME280;11495;55.610;12.100;2022-07-18T04:17:23;101966.91;;;15.15;0.00
22657;BME280;11495;55.610;12.100;2022-07-18T04:19:49;101966.31;;;15.18;0.00
22657;BME280;11495;55.610;12.100;2022-07-18T04:22:14;101960.22;;;15.21;0.00
22657;BME280;11495;55.610;12.100;2022-07-18T04:24:39;101965.47;;;15.28;0.00
22657;BME280;11495;55.610;12.100;2022-07-18T04:27:05;101956.59;;;15.36;0.00
22657;BME280;11495;55.610;12.100;2022-07-18T04:29:30;101945.78;;;15.50;0.00
22657;BME280;11495;55.610;12.100;2022-07-18T04:31:57;101929.94;;;15.60;0.00
22657;BME280;11495;55.610;12.100;2022-07-18T04:34:23;101930.75;;;15.76;0.00
22657;BME280;11495;55.610;12.100;2022-07-18T04:36:48;101930.75;;;15.71;0.00
22657;BME280;11495;55.610;12.100;2022-07-18T04:39:13;101913.50;;;15.84;0.00
22657;BME280;11495;55.610;12.100;2022-07-18T04:41:39;101921.25;;;15.92;0.00
22657;BME280;11495;55.610;12.100;2022-07-18T04:44:04;101916.75;;;16.01;0.00
22657;BME280;11495;55.610;12.100;2022-07-18T04:46:30;101911.19;;;16.07;0.00
22657;BME280;11495;55.610;12.100;2022-07-18T04:48:55;101918.63;;;16.16;0.00
22657;BME280;11495;55.610;12.100;2022-07-18T04:51:20;101919.16;;;16.18;0.00
22657;BME280;11495;55.610;12.100;2022-07-18T04:53:46;101914.13;;;16.25;0.00
22657;BME280;11495;55.610;12.100;2022-07-18T04:56:11;101926.06;;;16.26;0.00
22657;BME280;11495;55.610;12.100;2022-07-18T04:58:36;101928.53;;;16.33;0.00
22657;BME280;11495;55.610;12.100;2022-07-18T05:01:02;101931.25;;;16.38;0.00
22657;BME280;11495;55.610;12.100;2022-07-18T05:03:28;101935.97;;;16.37;0.00
22657;BME280;11495;55.610;12.100;2022-07-18T05:05:53;101937.38;;;16.40;0.00
22657;BME280;11495;55.610;12.100;2022-07-18T05:08:19;101957.38;;;16.37;0.00
22657;BME280;11495;55.610;12.100;2022-07-18T05:10:44;101966.56;;;16.32;0.00
22657;BME280;11495;55.610;12.100;2022-07-18T05:13:09;101961.56;;;16.29;0.00
22657;BME280;11495;55.610;12.100;2022-07-18T05:15:35;101979.28;;;16.38;0.00
22657;BME280;11495;55.610;12.100;2022-07-18T05:18:00;101977.62;;;16.37;0.00
22657;BME280;11495;55.610;12.100;2022-07-18T05:20:26;101994.28;;;16.37;0.00
22657;BME280;11495;55.610;12.100;2022-07-18T05:22:53;101999.59;;;16.34;0.00
22657;BME280;11495;55.610;12.100;2022-07-18T05:25:19;101995.69;;;16.40;0.00
22657;BME280;11495;55.610;12.100;2022-07-18T05:27:45;102008.16;;;16.37;0.00
22657;BME280;11495;55.610;12.100;2022-07-18T05:30:12;102018.75;;;16.30;0.00
22657;BME280;11495;55.610;12.100;2022-07-18T05:32:39;102021.50;;;16.40;0.00
22657;BME280;11495;55.610;12.100;2022-07-18T05:35:06;102023.63;;;16.53;0.00
22657;BME280;11495;55.610;12.100;2022-07-18T05:37:32;102027.22;;;16.59;0.00
22657;BME280;11495;55.610;12.100;2022-07-18T05:40:00;102021.81;;;16.88;0.00
22657;BME280;11495;55.610;12.100;2022-07-18T05:42:25;102029.47;;;17.06;0.00
22657;BME280;11495;55.610;12.100;2022-07-18T05:44:51;102043.56;;;17.15;0.00
22657;BME280;11495;55.610;12.100;2022-07-18T05:47:16;102043.44;;;17.30;0.00
22657;BME280;11495;55.610;12.100;2022-07-18T05:49:42;102044.69;;;17.48;0.00
22657;BME280;11495;55.610;12.100;2022-07-18T05:52:07;102053.84;;;17.49;0.00
22657;BME280;11495;55.610;12.100;2022-07-18T05:54:33;102064.72;;;17.45;0.00
22657;BME280;11495;55.610;12.100;2022-07-18T05:56:58;102079.84;;;17.34;0.00
22657;BME280;11495;55.610;12.100;2022-07-18T05:59:23;102092.69;;;17.30;0.00
22657;BME280;11495;55.610;12.100;2022-07-18T06:01:49;102101.78;;;17.35;0.00
22657;BME280;11495;55.610;12.100;2022-07-18T06:04:14;102107.87;;;17.37;0.00
22657;BME280;11495;55.610;12.100;2022-07-18T06:06:40;102108.13;;;17.46;0.00
22657;BME280;11495;55.610;12.100;2022-07-18T06:09:07;102124.81;;;17.46;0.00
22657;BME280;11495;55.610;12.100;2022-07-18T06:11:34;102126.41;;;17.52;0.00
22657;BME280;11495;55.610;12.100;2022-07-18T06:13:59;102125.75;;;17.71;0.00
22657;BME280;11495;55.610;12.100;2022-07-18T06:16:27;102136.31;;;17.68;0.00
22657;BME280;11495;55.610;12.100;2022-07-18T06:18:52;102143.69;;;17.88;0.00
22657;BME280;11495;55.610;12.100;2022-07-18T06:21:18;102155.25;;;18.01;0.00
22657;BME280;11495;55.610;12.100;2022-07-18T06:23:43;102163.00;;;18.04;0.00
22657;BME280;11495;55.610;12.100;2022-07-18T06:26:08;102172.78;;;18.01;0.00
22657;BME280;11495;55.610;12.100;2022-07-18T06:28:34;102188.34;;;18.07;0.00
22657;BME280;11495;55.610;12.100;2022-07-18T06:31:01;102199.22;;;18.04;0.00
22657;BME280;11495;55.610;12.100;2022-07-18T06:33:26;102224.53;;;18.07;0.00
22657;BME280;11495;55.610;12.100;2022-07-18T06:35:52;102242.94;;;18.03;0.00
22657;BME280;11495;55.610;12.100;2022-07-18T06:38:17;102256.41;;;17.91;0.00
22657;BME280;11495;55.610;12.100;2022-07-18T06:40:43;102268.16;;;17.83;0.00
22657;BME280;11495;55.610;12.100;2022-07-18T06:43:09;102279.91;;;17.75;0.00
22657;BME280;11495;55.610;12.100;2022-07-18T06:45:35;102277.66;;;17.77;0.00
22657;BME280;11495;55.610;12.100;2022-07-18T06:48:00;102276.00;;;17.76;0.00
22657;BME280;11495;55.610;12.100;2022-07-18T06:50:26;102274.88;;;17.77;0.00
22657;BME280;11495;55.610;12.100;2022-07-18T06:52:52;102283.22;;;17.77;0.00
22657;BME280;11495;55.610;12.100;2022-07-18T06:55:17;102275.34;;;17.89;0.00
22657;BME280;11495;55.610;12.100;2022-07-18T06:57:44;102285.09;;;17.86;0.00
22657;BME280;11495;55.610;12.100;2022-07-18T07:00:11;102298.22;;;17.81;0.00
22657;BME280;11495;55.610;12.100;2022-07-18T07:02:46;102296.59;;;17.75;0.00
22657;BME280;11495;55.610;12.100;2022-07-18T07:05:12;102296.84;;;17.78;0.00
22657;BME280;11495;55.610;12.100;2022-07-18T07:07:38;102298.53;;;17.69;0.00
22657;BME280;11495;55.610;12.100;2022-07-18T07:10:04;102301.91;;;17.71;0.00
22657;BME280;11495;55.610;12.100;2022-07-18T07:12:30;102288.81;;;17.66;0.00
22657;BME280;11495;55.610;12.100;2022-07-18T07:14:55;102287.41;;;17.69;0.00
22657;BME280;11495;55.610;12.100;2022-07-18T07:17:20;102292.16;;;17.74;0.00
22657;BME280;11495;55.610;12.100;2022-07-18T07:19:46;102291.06;;;17.64;0.00
22657;BME280;11495;55.610;12.100;2022-07-18T07:22:11;102287.00;;;17.41;0.00
22657;BME280;11495;55.610;12.100;2022-07-18T07:24:37;102260.00;;;17.47;0.00
22657;BME280;11495;55.610;12.100;2022-07-18T07:27:03;102253.63;;;17.47;0.00
22657;BME280;11495;55.610;12.100;2022-07-18T07:29:29;102249.41;;;17.49;0.00
22657;BME280;11495;55.610;12.100;2022-07-18T07:31:54;102254.97;;;17.54;0.00
22657;BME280;11495;55.610;12.100;2022-07-18T07:34:20;102256.63;;;17.55;0.00
22657;BME280;11495;55.610;12.100;2022-07-18T07:36:45;102263.84;;;17.51;0.00
22657;BME280;11495;55.610;12.100;2022-07-18T07:39:11;102254.41;;;17.52;0.00
22657;BME280;11495;55.610;12.100;2022-07-18T07:41:36;102249.34;;;17.59;0.00
22657;BME280;11495;55.610;12.100;2022-07-18T07:44:02;102249.56;;;17.68;0.00
22657;BME280;11495;55.610;12.100;2022-07-18T07:46:27;102262.97;;;17.71;0.00
22657;BME280;11495;55.610;12.100;2022-07-18T07:48:53;102262.59;;;17.78;0.00
22657;BME280;11495;55.610;12.100;2022-07-18T07:51:18;102257.47;;;17.95;0.00
22657;BME280;11495;55.610;12.100;2022-07-18T07:53:44;102262.31;;;18.18;0.00
22657;BME280;11495;55.610;12.100;2022-07-18T07:56:09;102268.97;;;18.22;0.00
22657;BME280;11495;55.610;12.100;2022-07-18T07:58:36;102287.78;;;18.36;0.00
22657;BME280;11495;55.610;12.100;2022-07-18T08:01:01;102308.03;;;18.46;0.00
22657;BME280;11495;55.610;12.100;2022-07-18T08:03:26;102328.03;;;18.53;0.00
22657;BME280;11495;55.610;12.100;2022-07-18T08:05:52;102346.88;;;18.62;0.00
22657;BME280;11495;55.610;12.100;2022-07-18T08:08:18;102383.00;;;18.82;0.00
22657;BME280;11495;55.610;12.100;2022-07-18T08:10:44;102408.72;;;19.03;0.00
22657;BME280;11495;55.610;12.100;2022-07-18T08:13:11;102454.72;;;19.34;0.00
22657;BME280;11495;55.610;12.100;2022-07-18T08:15:36;102491.84;;;19.88;0.00
22657;BME280;11495;55.610;12.100;2022-07-18T08:18:02;102588.03;;;20.72;0.00
22657;BME280;11495;55.610;12.100;2022-07-18T08:20:28;102757.28;;;21.37;0.00
22657;BME280;11495;55.610;12.100;2022-07-18T08:25:20;102321.59;;;21.41;0.00
22657;BME280;11495;55.610;12.100;2022-07-18T08:27:46;102169.69;;;21.71;0.00
22657;BME280;11495;55.610;12.100;2022-07-18T08:30:11;102131.78;;;22.19;0.00
22657;BME280;11495;55.610;12.100;2022-07-18T08:32:37;102138.69;;;22.12;0.00
22657;BME280;11495;55.610;12.100;2022-07-18T08:35:03;102145.28;;;22.17;0.00
22657;BME280;11495;55.610;12.100;2022-07-18T08:37:28;102146.19;;;22.03;0.00
22657;BME280;11495;55.610;12.100;2022-07-18T08:39:54;102148.50;;;22.01;0.00
22657;BME280;11495;55.610;12.100;2022-07-18T08:42:24;102154.56;;;22.26;0.00
22657;BME280;11495;55.610;12.100;2022-07-18T08:44:50;102177.12;;;22.21;0.00
22657;BME280;11495;55.610;12.100;2022-07-18T08:47:17;102192.41;;;22.37;0.00
22657;BME280;11495;55.610;12.100;2022-07-18T08:49:43;102216.69;;;22.50;0.00
22657;BME280;11495;55.610;12.100;2022-07-18T08:52:08;102217.34;;;22.47;0.00
22657;BME280;11495;55.610;12.100;2022-07-18T08:54:35;102237.91;;;22.74;0.00
22657;BME280;11495;55.610;12.100;2022-07-18T08:57:01;102237.03;;;22.56;0.00
22657;BME280;11495;55.610;12.100;2022-07-18T08:59:26;102243.56;;;22.42;0.00
22657;BME280;11495;55.610;12.100;2022-07-18T09:01:51;102246.63;;;22.32;0.00
22657;BME280;11495;55.610;12.100;2022-07-18T09:04:42;102232.38;;;22.20;0.00
22657;BME280;11495;55.610;12.100;2022-07-18T09:07:09;102218.22;;;22.03;0.00
22657;BME280;11495;55.610;12.100;2022-07-18T09:09:36;102206.44;;;21.70;0.00
22657;BME280;11495;55.610;12.100;2022-07-18T09:12:07;102192.84;;;21.63;0.00
22657;BME280;11495;55.610;12.100;2022-07-18T09:14:43;102188.00;;;21.55;0.00
22657;BME280;11495;55.610;12.100;2022-07-18T09:19:40;102167.88;;;21.30;0.00
22657;BME280;11495;55.610;12.100;2022-07-18T09:22:18;102164.88;;;21.27;0.00
22657;BME280;11495;55.610;12.100;2022-07-18T09:24:51;102141.53;;;21.18;0.00
22657;BME280;11495;55.610;12.100;2022-07-18T09:27:31;102153.78;;;21.36;0.00
22657;BME280;11495;55.610;12.100;2022-07-18T09:35:46;102155.28;;;20.92;0.00
22657;BME280;11495;55.610;12.100;2022-07-18T09:38:14;102150.53;;;20.79;0.00
22657;BME280;11495;55.610;12.100;2022-07-18T09:40:42;102151.78;;;20.86;0.00
22657;BME280;11495;55.610;12.100;2022-07-18T09:43:13;102169.44;;;21.09;0.00
22657;BME280;11495;55.610;12.100;2022-07-18T09:48:08;102201.12;;;21.32;0.00
22657;BME280;11495;55.610;12.100;2022-07-18T09:51:04;102213.66;;;21.48;0.00
22657;BME280;11495;55.610;12.100;2022-07-18T09:56:02;102265.50;;;21.46;0.00
22657;BME280;11495;55.610;12.100;2022-07-18T09:58:29;102263.28;;;21.93;0.00
22657;BME280;11495;55.610;12.100;2022-07-18T10:00:56;102283.66;;;22.21;0.00
22657;BME280;11495;55.610;12.100;2022-07-18T10:03:22;102292.66;;;21.95;0.00
22657;BME280;11495;55.610;12.100;2022-07-18T10:05:50;102289.44;;;22.24;0.00
22657;BME280;11495;55.610;12.100;2022-07-18T10:08:18;102293.16;;;22.64;0.00
22657;BME280;11495;55.610;12.100;2022-07-18T10:10:46;102330.88;;;23.03;0.00
22657;BME280;11495;55.610;12.100;2022-07-18T10:13:14;102342.53;;;23.27;0.00
22657;BME280;11495;55.610;12.100;2022-07-18T10:15:41;101471.44;;;23.51;0.00
22657;BME280;11495;55.610;12.100;2022-07-18T10:18:10;100836.47;;;23.21;0.00
22657;BME280;11495;55.610;12.100;2022-07-18T10:20:41;100928.78;;;23.11;0.00
22657;BME280;11495;55.610;12.100;2022-07-18T10:25:41;101026.63;;;23.12;0.00
22657;BME280;11495;55.610;12.100;2022-07-18T10:28:10;101014.81;;;23.19;0.00
22657;BME280;11495;55.610;12.100;2022-07-18T10:33:04;100988.47;;;22.95;0.00
22657;BME280;11495;55.610;12.100;2022-07-18T10:36:07;100995.47;;;23.02;0.00
22657;BME280;11495;55.610;12.100;2022-07-18T10:38:33;100999.56;;;22.92;0.00
22657;BME280;11495;55.610;12.100;2022-07-18T10:41:13;100993.97;;;23.20;0.00
22657;BME280;11495;55.610;12.100;2022-07-18T10:43:41;101049.09;;;23.00;0.00
22657;BME280;11495;55.610;12.100;2022-07-18T10:46:07;101069.94;;;22.62;0.00
22657;BME280;11495;55.610;12.100;2022-07-18T10:51:06;101017.13;;;22.40;0.00
22657;BME280;11495;55.610;12.100;2022-07-18T10:59:19;101011.53;;;22.52;0.00
22657;BME280;11495;55.610;12.100;2022-07-18T11:01:50;101015.12;;;22.89;0.00
22657;BME280;11495;55.610;12.100;2022-07-18T11:04:27;101052.03;;;23.32;0.00
22657;BME280;11495;55.610;12.100;2022-07-18T11:07:23;101093.03;;;23.48;0.00
22657;BME280;11495;55.610;12.100;2022-07-18T11:09:48;101112.25;;;23.87;0.00
22657;BME280;11495;55.610;12.100;2022-07-18T11:12:25;101120.00;;;23.77;0.00
22657;BME280;11495;55.610;12.100;2022-07-18T11:15:14;101141.63;;;24.05;0.00
22657;BME280;11495;55.610;12.100;2022-07-18T11:18:00;101158.06;;;24.47;0.00
22657;BME280;11495;55.610;12.100;2022-07-18T11:20:37;101185.72;;;24.01;0.00
22657;BME280;11495;55.610;12.100;2022-07-18T11:23:27;101160.00;;;24.30;0.00
22657;BME280;11495;55.610;12.100;2022-07-18T11:25:52;101177.34;;;24.32;0.00
22657;BME280;11495;55.610;12.100;2022-07-18T11:28:20;101188.28;;;24.81;0.00
22657;BME280;11495;55.610;12.100;2022-07-18T11:30:59;101255.16;;;24.72;0.00
22657;BME280;11495;55.610;12.100;2022-07-18T11:33:28;101331.28;;;24.63;0.00
22657;BME280;11495;55.610;12.100;2022-07-18T11:36:08;101460.19;;;24.74;0.00
22657;BME280;11495;55.610;12.100;2022-07-18T11:38:36;101476.69;;;24.87;0.00
22657;BME280;11495;55.610;12.100;2022-07-18T11:41:03;101508.66;;;24.67;0.00
22657;BME280;11495;55.610;12.100;2022-07-18T11:43:29;101512.69;;;24.42;0.00
22657;BME280;11495;55.610;12.100;2022-07-18T11:46:11;101516.84;;;24.11;0.00
22657;BME280;11495;55.610;12.100;2022-07-18T11:48:38;101505.38;;;24.28;0.00
22657;BME280;11495;55.610;12.100;2022-07-18T11:51:17;101514.03;;;24.23;0.00
22657;BME280;11495;55.610;12.100;2022-07-18T11:53:48;101511.22;;;24.11;0.00
22657;BME280;11495;55.610;12.100;2022-07-18T11:56:14;101507.00;;;24.05;0.00
22657;BME280;11495;55.610;12.100;2022-07-18T11:58:41;101508.44;;;24.35;0.00
22657;BME280;11495;55.610;12.100;2022-07-18T12:01:07;101515.56;;;24.57;0.00
22657;BME280;11495;55.610;12.100;2022-07-18T12:03:39;101521.53;;;24.56;0.00
22657;BME280;11495;55.610;12.100;2022-07-18T12:06:12;101497.66;;;24.50;0.00
22657;BME280;11495;55.610;12.100;2022-07-18T12:08:40;101504.87;;;24.75;0.00
22657;BME280;11495;55.610;12.100;2022-07-18T12:16:49;101501.50;;;25.97;0.00
22657;BME280;11495;55.610;12.100;2022-07-18T12:19:21;101463.75;;;26.18;0.00
22657;BME280;11495;55.610;12.100;2022-07-18T12:21:50;101430.53;;;26.27;0.00
22657;BME280;11495;55.610;12.100;2022-07-18T12:24:29;101408.75;;;26.63;0.00
22657;BME280;11495;55.610;12.100;2022-07-18T12:27:14;101426.03;;;27.15;0.00
22657;BME280;11495;55.610;12.100;2022-07-18T12:32:22;101435.31;;;27.81;0.00
22657;BME280;11495;55.610;12.100;2022-07-18T12:35:04;101446.72;;;27.65;0.00
22657;BME280;11495;55.610;12.100;2022-07-18T12:37:30;101453.56;;;27.03;0.00
22657;BME280;11495;55.610;12.100;2022-07-18T12:39:57;101468.28;;;26.93;0.00
22657;BME280;11495;55.610;12.100;2022-07-18T12:42:32;101446.22;;;26.98;0.00
22657;BME280;11495;55.610;12.100;2022-07-18T12:44:58;101449.41;;;26.77;0.00
22657;BME280;11495;55.610;12.100;2022-07-18T12:47:23;101433.94;;;26.71;0.00
22657;BME280;11495;55.610;12.100;2022-07-18T12:49:49;101435.06;;;26.86;0.00
22657;BME280;11495;55.610;12.100;2022-07-18T12:52:14;101441.78;;;27.17;0.00
22657;BME280;11495;55.610;12.100;2022-07-18T12:54:39;101440.72;;;27.67;0.00
22657;BME280;11495;55.610;12.100;2022-07-18T12:57:05;101445.81;;;27.81;0.00
22657;BME280;11495;55.610;12.100;2022-07-18T12:59:30;101445.56;;;27.47;0.00
22657;BME280;11495;55.610;12.100;2022-07-18T13:01:59;101459.81;;;27.74;0.00
22657;BME280;11495;55.610;12.100;2022-07-18T13:04:25;101481.66;;;27.99;0.00
22657;BME280;11495;55.610;12.100;2022-07-18T13:06:50;101475.78;;;27.66;0.00
22657;BME280;11495;55.610;12.100;2022-07-18T13:09:15;101465.50;;;28.00;0.00
22657;BME280;11495;55.610;12.100;2022-07-18T13:11:43;101460.22;;;28.48;0.00
22657;BME280;11495;55.610;12.100;2022-07-18T13:14:13;101464.53;;;28.68;0.00
22657;BME280;11495;55.610;12.100;2022-07-18T13:16:38;101467.06;;;28.47;0.00
22657;BME280;11495;55.610;12.100;2022-07-18T13:19:04;101454.72;;;28.32;0.00
22657;BME280;11495;55.610;12.100;2022-07-18T13:21:29;101449.81;;;28.29;0.00
22657;BME280;11495;55.610;12.100;2022-07-18T13:23:55;101445.19;;;27.94;0.00
22657;BME280;11495;55.610;12.100;2022-07-18T13:26:20;101431.88;;;27.72;0.00
22657;BME280;11495;55.610;12.100;2022-07-18T13:28:46;101431.97;;;28.28;0.00